Time;durP1;ratioP1;P1;durP2;ratioP2;P2;SDS_P1;SDS_P2;PMS_P1;PMS_P2;Temp;Humidity;BMP_temperature;BMP_pressure;BME280_temperature;BME280_humidity;BME280_pressure;Samples;Min_cycle;Max_cycle;Signal;HPM_P1;HPM_P2
2021/03/20 00:00:44;;;;;;;3.33;1.30;;;;;;;-1.35;66.66;102150.81;5032371;28;20823;-61
2021/03/20 00:03:10;;;;;;;1.97;1.20;;;;;;;-1.37;66.20;102149.94;5032316;28;20202;-61
2021/03/20 00:05:36;;;;;;;2.63;1.43;;;;;;;-1.38;66.97;102154.28;5035503;28;20206;-61
2021/03/20 00:08:03;;;;;;;3.13;1.40;;;;;;;-1.40;66.58;102158.63;5025219;28;20811;-62
2021/03/20 00:10:30;;;;;;;3.27;1.40;;;;;;;-1.40;66.97;102163.84;5026044;28;20808;-62
2021/03/20 00:12:57;;;;;;;2.97;1.37;;;;;;;-1.40;66.72;102167.31;5027891;28;20293;-61
2021/03/20 00:15:26;;;;;;;3.37;1.50;;;;;;;-1.40;67.33;102167.31;5026920;28;20296;-62
2021/03/20 00:17:53;;;;;;;2.47;1.40;;;;;;;-1.38;66.85;102172.56;5024520;28;20313;-62
2021/03/20 00:20:24;;;;;;;2.13;1.30;;;;;;;-1.36;66.89;102172.59;5027828;28;20194;-63
2021/03/20 00:22:51;;;;;;;3.20;1.77;;;;;;;-1.34;67.33;102168.25;5024718;28;20293;-61
2021/03/20 00:25:18;;;;;;;3.60;1.50;;;;;;;-1.34;67.53;102166.53;5026290;28;20198;-62
2021/03/20 00:27:44;;;;;;;5.30;1.40;;;;;;;-1.33;67.67;102172.63;5026584;28;20264;-61
2021/03/20 00:30:12;;;;;;;2.27;1.60;;;;;;;-1.35;67.80;102166.50;5029503;28;20274;-61
2021/03/20 00:32:39;;;;;;;6.07;1.60;;;;;;;-1.32;67.34;102169.16;5024862;28;20213;-61
2021/03/20 00:35:08;;;;;;;4.77;1.87;;;;;;;-1.34;67.60;102165.66;5028663;28;20220;-61
2021/03/20 00:37:34;;;;;;;5.40;2.03;;;;;;;-1.35;67.59;102153.44;5028066;28;20703;-61
2021/03/20 00:40:00;;;;;;;6.90;2.17;;;;;;;-1.35;67.68;102146.47;5026511;28;20194;-64
2021/03/20 00:42:26;;;;;;;4.63;2.53;;;;;;;-1.35;67.50;102136.03;5028283;28;20216;-62
2021/03/20 00:44:53;;;;;;;3.20;1.60;;;;;;;-1.36;67.31;102138.63;5026625;28;20228;-64
2021/03/20 00:47:20;;;;;;;4.00;2.07;;;;;;;-1.37;67.29;102134.25;5028541;28;20636;-64
2021/03/20 00:49:46;;;;;;;2.60;1.70;;;;;;;-1.40;67.43;102138.59;5028513;28;20277;-64
2021/03/20 00:52:12;;;;;;;3.20;2.13;;;;;;;-1.41;67.83;102144.66;5028981;28;20313;-62
2021/03/20 00:54:38;;;;;;;2.83;1.43;;;;;;;-1.43;67.97;102145.50;5028749;28;20202;-62
2021/03/20 00:57:04;;;;;;;2.17;1.37;;;;;;;-1.47;67.19;102146.38;5027856;28;20225;-64
2021/03/20 00:59:30;;;;;;;2.70;1.50;;;;;;;-1.52;67.78;102145.44;5029130;28;20289;-64
2021/03/20 01:01:56;;;;;;;2.33;1.30;;;;;;;-1.57;67.66;102145.38;5025923;28;20199;-64
2021/03/20 01:04:24;;;;;;;2.33;1.50;;;;;;;-1.60;67.58;102139.25;5027192;28;20206;-63
2021/03/20 01:06:50;;;;;;;3.20;1.30;;;;;;;-1.61;67.68;102151.44;5025950;28;20228;-64
2021/03/20 01:09:16;;;;;;;3.37;1.40;;;;;;;-1.63;68.06;102147.97;5025999;28;20202;-63
2021/03/20 01:11:42;;;;;;;2.50;1.33;;;;;;;-1.64;67.89;102134.88;5029117;28;20305;-63
2021/03/20 01:14:08;;;;;;;3.27;1.67;;;;;;;-1.66;68.17;102145.31;5026587;28;20221;-63
2021/03/20 01:16:34;;;;;;;2.87;1.87;;;;;;;-1.66;67.98;102147.91;5025262;28;20227;-63
2021/03/20 01:19:01;;;;;;;2.40;1.90;;;;;;;-1.68;67.99;102152.25;5023910;28;20206;-61
2021/03/20 01:21:28;;;;;;;3.77;1.90;;;;;;;-1.69;68.58;102152.22;5024706;28;20854;-63
2021/03/20 01:23:54;;;;;;;3.43;1.70;;;;;;;-1.72;68.04;102153.06;5026371;28;20213;-63
2021/03/20 01:26:20;;;;;;;3.37;1.80;;;;;;;-1.74;68.25;102157.38;5028646;28;20206;-62
2021/03/20 01:28:47;;;;;;;2.13;1.67;;;;;;;-1.75;68.12;102164.34;5027104;28;20695;-63
2021/03/20 01:31:14;;;;;;;5.83;1.80;;;;;;;-1.77;68.13;102157.34;5025837;28;20300;-62
2021/03/20 01:33:40;;;;;;;5.50;2.13;;;;;;;-1.79;68.88;102166.91;5024330;28;20582;-63
2021/03/20 01:36:07;;;;;;;2.33;1.60;;;;;;;-1.81;68.66;102158.19;5021951;28;20209;-61
2021/03/20 01:38:34;;;;;;;3.57;1.50;;;;;;;-1.82;68.58;102162.53;5023017;28;20212;-62
2021/03/20 01:41:02;;;;;;;2.70;1.67;;;;;;;-1.86;68.75;102165.97;5024738;28;20207;-64
2021/03/20 01:43:31;;;;;;;2.77;1.60;;;;;;;-1.89;68.62;102172.88;5025466;28;20668;-64
2021/03/20 01:46:45;;;;;;;3.20;1.80;;;;;;;-1.91;69.06;102178.09;5025454;28;20202;-64
2021/03/20 01:49:24;;;;;;;3.93;1.47;;;;;;;-1.93;69.05;102179.81;5023714;28;20206;-61
2021/03/20 01:51:57;;;;;;;4.23;1.97;;;;;;;-1.94;69.40;102170.22;5030996;28;20274;-63
2021/03/20 01:54:28;;;;;;;3.77;2.00;;;;;;;-1.95;69.21;102175.41;5031455;28;20208;-60
2021/03/20 01:56:54;;;;;;;3.00;2.20;;;;;;;-1.95;69.53;102180.63;5029731;28;20248;-61
2021/03/20 01:59:22;;;;;;;2.73;1.93;;;;;;;-1.95;69.71;102175.41;5030446;28;20604;-62
2021/03/20 02:01:48;;;;;;;3.03;1.90;;;;;;;-1.96;69.37;102173.66;5027419;28;20676;-63
2021/03/20 02:04:15;;;;;;;3.90;1.60;;;;;;;-1.97;69.90;102167.56;5030635;28;20711;-63
2021/03/20 02:06:41;;;;;;;2.70;1.20;;;;;;;-1.98;69.56;102163.22;5028872;28;20313;-64
2021/03/20 02:09:09;;;;;;;2.43;1.53;;;;;;;-1.99;69.80;102158.00;5031501;28;20202;-63
2021/03/20 02:11:43;;;;;;;3.40;1.70;;;;;;;-2.00;69.37;102156.22;5028803;28;20276;-64
2021/03/20 02:14:17;;;;;;;3.13;1.60;;;;;;;-2.03;69.62;102161.41;5029159;28;20199;-63
2021/03/20 02:16:50;;;;;;;5.57;2.00;;;;;;;-2.05;69.91;102161.38;5026979;28;20230;-63
2021/03/20 02:19:37;;;;;;;4.37;2.13;;;;;;;-2.08;69.79;102157.84;5027687;28;20675;-63
2021/03/20 02:22:06;;;;;;;3.53;1.43;;;;;;;-2.10;69.82;102156.09;5028759;28;20312;-63
2021/03/20 02:25:02;;;;;;;2.87;1.40;;;;;;;-2.13;69.99;102161.28;5030831;28;20208;-63
2021/03/20 02:27:55;;;;;;;4.17;1.47;;;;;;;-2.15;69.72;102147.31;5012685;28;20353;-63
2021/03/20 02:30:54;;;;;;;3.53;1.40;;;;;;;-2.19;70.25;102145.56;5030510;28;20202;-63
2021/03/20 02:33:32;;;;;;;2.60;1.23;;;;;;;-2.21;70.20;102142.06;5005586;28;20638;-63
2021/03/20 02:36:10;;;;;;;3.10;1.50;;;;;;;-2.23;70.27;102148.09;5027292;28;20202;-64
2021/03/20 02:38:44;;;;;;;2.53;1.70;;;;;;;-2.25;70.08;102150.69;5025674;28;20308;-61
2021/03/20 02:41:20;;;;;;;4.30;1.60;;;;;;;-2.26;69.99;102151.53;5030500;28;20750;-61
2021/03/20 02:43:55;;;;;;;2.10;1.40;;;;;;;-2.27;70.31;102157.63;5030537;28;20206;-62
2021/03/20 02:46:26;;;;;;;3.33;1.47;;;;;;;-2.30;70.29;102148.88;5027957;28;20576;-60
2021/03/20 02:49:01;;;;;;;6.33;1.73;;;;;;;-2.32;70.46;102151.47;5030601;28;20210;-63
2021/03/20 02:51:32;;;;;;;3.10;1.70;;;;;;;-2.31;70.16;102149.72;5024114;28;20637;-64
2021/03/20 02:54:05;;;;;;;3.60;1.90;;;;;;;-2.34;70.41;102150.59;5026270;28;20581;-61
2021/03/20 02:56:40;;;;;;;3.60;1.77;;;;;;;-2.35;70.46;102147.97;5029803;28;20222;-64
2021/03/20 02:59:10;;;;;;;4.97;1.73;;;;;;;-2.38;70.64;102143.56;5027566;28;20265;-63
2021/03/20 03:01:38;;;;;;;5.43;2.23;;;;;;;-2.39;70.32;102141.81;5029221;28;20232;-62
2021/03/20 03:04:07;;;;;;;3.33;1.60;;;;;;;-2.41;70.16;102143.53;5029789;28;20217;-63
2021/03/20 03:06:41;;;;;;;3.60;1.47;;;;;;;-2.43;70.20;102147.84;5030827;28;20257;-61
2021/03/20 03:09:13;;;;;;;3.37;1.80;;;;;;;-2.47;70.43;102146.91;5028183;28;20210;-61
2021/03/20 03:11:45;;;;;;;3.83;1.90;;;;;;;-2.49;70.45;102139.91;5029671;28;20226;-62
2021/03/20 03:14:16;;;;;;;4.67;2.00;;;;;;;-2.50;70.76;102132.94;5029187;28;20285;-63
2021/03/20 03:16:46;;;;;;;2.67;1.50;;;;;;;-2.51;70.85;102131.22;5025889;28;20230;-63
2021/03/20 03:19:22;;;;;;;3.30;1.70;;;;;;;-2.52;70.70;102132.06;5029679;28;20296;-62
2021/03/20 03:21:52;;;;;;;1.90;1.50;;;;;;;-2.52;70.65;102137.28;5029488;28;20204;-63
2021/03/20 03:24:21;;;;;;;2.70;1.43;;;;;;;-2.55;70.63;102132.91;5029508;28;20202;-63
2021/03/20 03:26:50;;;;;;;4.80;1.87;;;;;;;-2.59;70.68;102149.34;5026415;28;20221;-62
2021/03/20 03:29:21;;;;;;;4.03;1.83;;;;;;;-2.65;70.63;102144.03;5029977;28;20202;-63
2021/03/20 03:31:53;;;;;;;5.07;1.80;;;;;;;-2.68;71.23;102148.34;5027441;28;20321;-63
2021/03/20 03:34:26;;;;;;;3.50;1.90;;;;;;;-2.71;71.16;102128.34;5030267;28;20210;-63
2021/03/20 03:37:01;;;;;;;6.40;2.33;;;;;;;-2.72;71.53;102133.53;5028289;28;20375;-63
2021/03/20 03:39:35;;;;;;;2.93;1.63;;;;;;;-2.72;71.58;102121.34;5030424;28;20526;-62
2021/03/20 03:42:01;;;;;;;2.73;1.80;;;;;;;-2.72;71.85;102126.56;5027751;28;20203;-62
2021/03/20 03:44:28;;;;;;;3.07;1.90;;;;;;;-2.73;71.94;102134.38;5029378;28;20282;-62
2021/03/20 03:46:54;;;;;;;4.07;1.70;;;;;;;-2.73;72.15;102134.38;5029030;28;20240;-60
2021/03/20 03:49:23;;;;;;;3.20;1.70;;;;;;;-2.73;71.95;102144.81;5029531;28;20237;-63
2021/03/20 03:51:50;;;;;;;5.13;2.03;;;;;;;-2.74;72.25;102146.53;5029164;28;20317;-63
2021/03/20 03:54:16;;;;;;;3.60;2.03;;;;;;;-2.76;72.02;102152.56;5027020;28;20212;-63
2021/03/20 03:56:57;;;;;;;4.20;2.33;;;;;;;-2.80;72.31;102157.75;5026737;28;20265;-63
2021/03/20 03:59:36;;;;;;;4.30;1.80;;;;;;;-2.82;72.44;102155.94;5023608;28;20217;-61
2021/03/20 04:02:16;;;;;;;3.77;2.00;;;;;;;-2.85;72.33;102162.00;5027583;28;20208;-63
2021/03/20 04:05:00;;;;;;;3.60;1.90;;;;;;;-2.89;72.29;102165.44;5027781;28;20212;-63
2021/03/20 04:07:39;;;;;;;3.27;2.03;;;;;;;-2.88;72.17;102168.91;5024319;28;20265;-63
2021/03/20 04:10:13;;;;;;;3.47;1.97;;;;;;;-2.89;72.38;102181.06;5025169;28;20252;-63
2021/03/20 04:12:47;;;;;;;3.00;1.97;;;;;;;-2.88;72.56;102176.75;5027170;28;20218;-63
2021/03/20 04:15:23;;;;;;;4.27;1.83;;;;;;;-2.86;72.45;102181.09;5028206;28;20678;-63
2021/03/20 04:17:59;;;;;;;3.13;1.97;;;;;;;-2.87;72.70;102176.75;5026225;28;20229;-63
2021/03/20 04:20:31;;;;;;;4.60;2.10;;;;;;;-2.86;72.56;102177.63;5025897;28;20202;-63
2021/03/20 04:23:00;;;;;;;2.90;1.93;;;;;;;-2.87;72.85;102174.16;5027505;28;20683;-63
2021/03/20 04:25:37;;;;;;;3.97;1.97;;;;;;;-2.88;72.66;102172.41;5026512;28;20707;-63
2021/03/20 04:28:14;;;;;;;2.60;1.63;;;;;;;-2.86;72.77;102175.00;5026799;28;20750;-63
2021/03/20 04:30:44;;;;;;;2.53;1.77;;;;;;;-2.88;73.02;102166.31;5025796;28;20231;-63
2021/03/20 04:33:18;;;;;;;2.93;1.67;;;;;;;-2.88;72.83;102171.53;5027056;28;20202;-63
2021/03/20 04:35:51;;;;;;;3.13;2.20;;;;;;;-2.89;72.74;102170.66;5026924;28;20231;-62
2021/03/20 04:38:18;;;;;;;2.60;1.60;;;;;;;-2.90;72.84;102181.03;5024772;28;20230;-63
2021/03/20 04:40:46;;;;;;;3.93;1.50;;;;;;;-2.91;72.72;102177.56;5023372;28;20224;-63
2021/03/20 04:43:15;;;;;;;3.20;1.77;;;;;;;-2.92;72.54;102175.81;5025896;28;20202;-63
2021/03/20 04:45:45;;;;;;;4.23;2.03;;;;;;;-2.91;72.94;102172.34;5027837;28;20210;-63
2021/03/20 04:48:16;;;;;;;4.33;1.80;;;;;;;-2.92;72.54;102174.94;5026787;28;20227;-63
2021/03/20 04:50:45;;;;;;;4.13;1.77;;;;;;;-2.92;73.05;102181.03;5027144;28;20236;-63
2021/03/20 04:53:15;;;;;;;4.27;1.73;;;;;;;-2.93;73.07;102176.66;5024153;28;20198;-63
2021/03/20 04:55:42;;;;;;;4.60;2.00;;;;;;;-2.94;72.85;102167.09;5028466;28;20202;-63
2021/03/20 04:58:15;;;;;;;5.87;2.83;;;;;;;-2.95;72.88;102170.53;5028020;28;20234;-63
2021/03/20 05:00:46;;;;;;;3.77;2.00;;;;;;;-2.96;72.82;102171.38;5024382;28;20230;-63
2021/03/20 05:03:19;;;;;;;6.90;2.07;;;;;;;-2.96;72.99;102158.34;5029078;28;20204;-63
2021/03/20 05:05:48;;;;;;;5.60;2.30;;;;;;;-2.96;73.12;102147.94;5026053;28;20234;-63
2021/03/20 05:08:19;;;;;;;3.87;2.40;;;;;;;-2.98;73.16;102156.56;5026506;28;20226;-62
2021/03/20 05:10:50;;;;;;;6.10;1.90;;;;;;;-2.98;73.33;102147.03;5027131;28;20252;-63
2021/03/20 05:13:27;;;;;;;4.13;1.90;;;;;;;-2.96;73.36;102152.25;5021158;28;20490;-62
2021/03/20 05:15:59;;;;;;;2.57;1.63;;;;;;;-2.98;73.44;102149.63;5017945;28;20290;-63
2021/03/20 05:18:25;;;;;;;5.30;2.60;;;;;;;-2.95;73.13;102149.69;5004886;28;20711;-61
2021/03/20 05:20:51;;;;;;;3.43;1.97;;;;;;;-2.96;73.41;102155.75;5003410;28;20325;-63
2021/03/20 05:23:18;;;;;;;6.33;2.20;;;;;;;-2.96;73.37;102154.88;5006314;28;20198;-63
2021/03/20 05:25:45;;;;;;;4.43;2.00;;;;;;;-2.97;73.21;102151.38;5001586;28;21087;-63
2021/03/20 05:28:11;;;;;;;3.87;1.80;;;;;;;-2.99;73.55;102147.88;5014419;28;20318;-63
2021/03/20 05:30:37;;;;;;;4.73;2.40;;;;;;;-2.99;73.57;102152.22;5030238;28;20259;-62
2021/03/20 05:33:03;;;;;;;4.17;2.50;;;;;;;-3.00;73.32;102159.16;5026033;28;20206;-63
2021/03/20 05:35:29;;;;;;;3.90;2.30;;;;;;;-3.00;73.47;102156.53;5028074;28;20206;-63
2021/03/20 05:37:56;;;;;;;4.67;2.27;;;;;;;-3.00;73.36;102151.34;5028155;28;20271;-63
2021/03/20 05:40:26;;;;;;;4.73;2.37;;;;;;;-2.99;73.73;102145.25;5023444;28;20199;-63
2021/03/20 05:43:17;;;;;;;4.07;2.60;;;;;;;-2.98;73.44;102147.03;5018862;28;20516;-63
2021/03/20 05:45:54;;;;;;;3.73;2.23;;;;;;;-2.98;73.70;102148.75;5025630;28;20214;-61
2021/03/20 05:48:25;;;;;;;4.13;2.60;;;;;;;-2.97;73.62;102151.38;5023723;28;20673;-62
2021/03/20 05:51:11;;;;;;;3.07;2.10;;;;;;;-2.96;73.86;102147.94;5032739;28;20233;-63
2021/03/20 05:54:03;;;;;;;7.43;2.10;;;;;;;-2.96;73.66;102157.47;5028934;28;20203;-62
2021/03/20 05:56:46;;;;;;;5.37;2.10;;;;;;;-2.96;73.52;102165.28;5030148;28;20776;-62
2021/03/20 05:59:26;;;;;;;4.07;2.10;;;;;;;-2.97;73.98;102164.41;4976874;28;20279;-65
2021/03/20 06:02:06;;;;;;;3.67;1.83;;;;;;;-2.97;74.29;102163.53;4978878;28;20208;-66
2021/03/20 06:04:39;;;;;;;5.73;2.17;;;;;;;-2.96;74.13;102160.97;4982396;28;20757;-66
2021/03/20 06:07:21;;;;;;;2.93;2.00;;;;;;;-2.92;74.45;102170.59;4982024;28;20307;-68
2021/03/20 06:09:56;;;;;;;3.03;2.23;;;;;;;-2.87;74.51;102176.75;4982073;28;20222;-66
2021/03/20 06:12:40;;;;;;;4.83;2.50;;;;;;;-2.82;74.75;102175.09;4976158;28;20387;-66
2021/03/20 06:15:13;;;;;;;4.00;2.20;;;;;;;-2.76;74.73;102182.13;4983158;28;20196;-66
2021/03/20 06:18:02;;;;;;;2.93;1.83;;;;;;;-2.69;74.84;102183.13;4980416;28;20651;-67
2021/03/20 06:20:36;;;;;;;4.50;1.83;;;;;;;-2.64;75.21;102181.44;4988261;28;20640;-66
2021/03/20 06:23:27;;;;;;;3.23;2.17;;;;;;;-2.58;75.51;102195.47;4978498;28;20211;-67
2021/03/20 06:26:02;;;;;;;5.20;2.37;;;;;;;-2.54;75.37;102197.25;4980899;28;20311;-65
2021/03/20 06:28:33;;;;;;;3.03;1.90;;;;;;;-2.50;75.00;102191.22;4977993;28;20224;-66
2021/03/20 06:31:06;;;;;;;3.27;2.10;;;;;;;-2.43;75.58;102193.91;4974810;28;20319;-66
2021/03/20 06:33:42;;;;;;;4.07;2.67;;;;;;;-2.37;75.40;102196.63;4977705;28;20211;-67
2021/03/20 06:36:14;;;;;;;6.17;2.10;;;;;;;-2.30;75.43;102191.50;4986160;28;20798;-67
2021/03/20 06:38:45;;;;;;;5.00;1.80;;;;;;;-2.24;75.95;102188.97;4976503;28;20311;-68
2021/03/20 06:41:24;;;;;;;4.43;2.27;;;;;;;-2.18;75.64;102193.41;4971746;28;20741;-67
2021/03/20 06:43:54;;;;;;;5.17;2.33;;;;;;;-2.14;75.72;102189.97;4980075;28;20199;-66
2021/03/20 06:46:26;;;;;;;3.10;2.07;;;;;;;-2.10;75.63;102203.09;4981516;28;20246;-68
2021/03/20 06:48:54;;;;;;;4.67;2.33;;;;;;;-2.05;75.84;102195.31;4977280;28;20295;-67
2021/03/20 06:51:20;;;;;;;6.17;2.87;;;;;;;-2.00;76.23;102193.66;4984498;28;20310;-67
2021/03/20 06:53:55;;;;;;;4.30;2.00;;;;;;;-1.92;75.81;102193.72;4974059;28;20343;-67
2021/03/20 06:56:22;;;;;;;3.67;2.17;;;;;;;-1.84;76.28;102198.22;4978727;28;20317;-69
2021/03/20 06:58:48;;;;;;;4.17;2.20;;;;;;;-1.76;75.71;102203.50;4978333;28;20621;-67
2021/03/20 07:01:42;;;;;;;6.43;2.60;;;;;;;-1.67;75.73;102197.53;4987646;28;20269;-69
2021/03/20 07:04:42;;;;;;;6.17;3.10;;;;;;;-1.59;76.00;102209.81;4976452;28;20216;-67
2021/03/20 07:07:26;;;;;;;4.83;2.50;;;;;;;-1.49;76.06;102214.28;4978019;28;20351;-68
2021/03/20 07:09:53;;;;;;;3.87;1.63;;;;;;;-1.42;75.47;102216.09;4982266;28;20478;-67
2021/03/20 07:12:20;;;;;;;4.23;2.27;;;;;;;-1.34;75.10;102224.03;4975293;28;20231;-69
2021/03/20 07:14:48;;;;;;;5.20;1.93;;;;;;;-1.28;75.24;102218.00;4981611;28;20215;-69
2021/03/20 07:17:35;;;;;;;3.20;2.10;;;;;;;-1.21;74.75;102223.28;4980858;28;20641;-67
2021/03/20 07:20:08;;;;;;;3.33;1.83;;;;;;;-1.14;74.52;102227.72;4978905;28;20216;-67
2021/03/20 07:22:37;;;;;;;3.00;2.30;;;;;;;-1.06;74.71;102222.53;4980801;28;20307;-68
2021/03/20 07:25:22;;;;;;;5.73;3.87;;;;;;;-0.98;73.99;102220.88;4976027;28;20204;-66
2021/03/20 07:27:49;;;;;;;9.50;2.53;;;;;;;-0.89;73.95;102234.03;4978973;28;20313;-67
2021/03/20 07:30:33;;;;;;;4.37;2.57;;;;;;;-0.80;74.08;102230.63;4976014;28;20424;-67
2021/03/20 07:33:00;;;;;;;5.53;2.40;;;;;;;-0.72;73.18;102221.13;4979946;28;20698;-66
2021/03/20 07:35:32;;;;;;;4.80;2.60;;;;;;;-0.67;73.33;102214.16;4976522;28;20208;-66
2021/03/20 07:38:15;;;;;;;3.33;2.23;;;;;;;-0.60;72.87;102215.09;4976791;28;20220;-67
2021/03/20 07:40:41;;;;;;;4.90;2.23;;;;;;;-0.57;72.56;102209.88;4974728;28;21301;-67
2021/03/20 07:43:12;;;;;;;3.83;2.70;;;;;;;-0.51;72.13;102216.03;4979909;28;20207;-68
2021/03/20 07:45:38;;;;;;;4.33;2.30;;;;;;;-0.45;72.54;102208.22;4977575;28;20391;-66
2021/03/20 07:48:16;;;;;;;4.53;2.40;;;;;;;-0.39;71.79;102208.28;4974668;28;20228;-66
2021/03/20 07:50:46;;;;;;;3.63;2.43;;;;;;;-0.32;71.99;102210.91;4983439;28;20253;-67
2021/03/20 07:53:15;;;;;;;5.03;2.00;;;;;;;-0.26;71.71;102216.19;4980929;28;20595;-67
2021/03/20 07:56:01;;;;;;;10.33;3.10;;;;;;;-0.23;71.32;102217.09;4988782;28;20550;-67
2021/03/20 07:58:35;;;;;;;4.37;1.80;;;;;;;-0.19;70.89;102216.25;4983361;28;20725;-66
2021/03/20 08:01:06;;;;;;;3.10;2.07;;;;;;;-0.16;70.65;102218.88;4985735;28;20757;-67
2021/03/20 08:03:47;;;;;;;3.33;2.03;;;;;;;-0.11;70.47;102227.63;4984855;28;20204;-67
2021/03/20 08:06:15;;;;;;;3.90;1.87;;;;;;;-0.09;70.22;102209.31;4984521;28;20206;-66
2021/03/20 08:08:42;;;;;;;3.17;2.10;;;;;;;-0.06;70.08;102206.72;4986187;28;20231;-68
2021/03/20 08:11:26;;;;;;;3.93;2.00;;;;;;;-0.03;69.68;102204.13;4976503;28;20606;-67
2021/03/20 08:13:56;;;;;;;5.90;2.30;;;;;;;0.03;69.50;102211.09;4982866;28;20293;-66
2021/03/20 08:16:22;;;;;;;4.90;2.10;;;;;;;0.08;69.41;102210.25;4984482;28;20216;-68
2021/03/20 08:18:54;;;;;;;4.40;2.30;;;;;;;0.15;69.33;102209.44;4986707;28;20705;-67
2021/03/20 08:21:41;;;;;;;5.87;2.60;;;;;;;0.25;69.24;102215.56;4982364;28;20206;-67
2021/03/20 08:24:18;;;;;;;4.20;1.87;;;;;;;0.33;69.13;102204.28;4983210;28;20212;-67
2021/03/20 08:26:54;;;;;;;4.00;2.57;;;;;;;0.39;69.17;102213.88;4986289;28;20246;-68
2021/03/20 08:29:43;;;;;;;4.20;2.40;;;;;;;0.44;68.42;102212.16;4989303;28;20202;-67
2021/03/20 08:32:19;;;;;;;4.93;2.83;;;;;;;0.50;68.54;102219.16;4981922;28;20237;-67
2021/03/20 08:35:02;;;;;;;6.23;2.53;;;;;;;0.53;68.07;102217.44;4981937;28;20199;-67
2021/03/20 08:37:53;;;;;;;4.07;2.37;;;;;;;0.57;68.21;102213.06;4986526;28;20234;-65
2021/03/20 08:40:42;;;;;;;7.10;2.40;;;;;;;0.64;67.87;102214.84;4986014;28;20203;-68
2021/03/20 08:43:45;;;;;;;9.03;2.67;;;;;;;0.69;67.80;102203.50;4979014;28;20261;-67
2021/03/20 08:46:21;;;;;;;5.23;2.03;;;;;;;0.77;67.60;102206.09;4982528;28;20237;-69
2021/03/20 08:48:57;;;;;;;4.17;2.03;;;;;;;0.86;67.48;102207.88;4979515;28;20251;-66
2021/03/20 08:51:33;;;;;;;3.67;1.80;;;;;;;0.90;67.20;102201.75;4979873;28;20717;-67
2021/03/20 08:54:09;;;;;;;8.57;2.77;;;;;;;0.92;66.77;102198.25;4981233;28;20199;-67
2021/03/20 08:56:47;;;;;;;6.67;3.47;;;;;;;0.94;66.46;102193.00;4982990;28;20195;-67
2021/03/20 08:59:16;;;;;;;3.73;2.20;;;;;;;0.96;66.22;102193.88;4978302;28;20211;-68
2021/03/20 09:01:47;;;;;;;4.33;1.73;;;;;;;1.00;65.65;102198.28;4978402;28;20207;-68
2021/03/20 09:04:16;;;;;;;4.30;2.10;;;;;;;1.04;65.42;102186.91;4981242;28;20305;-68
2021/03/20 09:06:46;;;;;;;3.97;1.50;;;;;;;1.08;64.97;102195.63;4984993;28;20267;-71
2021/03/20 09:09:19;;;;;;;2.83;1.90;;;;;;;1.11;64.62;102185.16;4981205;28;20222;-70
2021/03/20 09:11:51;;;;;;;3.40;1.93;;;;;;;1.18;64.15;102193.03;4977929;28;20249;-68
2021/03/20 09:14:22;;;;;;;2.73;2.33;;;;;;;1.24;63.64;102185.16;4983004;28;20215;-68
2021/03/20 09:16:52;;;;;;;2.67;1.67;;;;;;;1.30;63.57;102185.16;4980775;28;20684;-68
2021/03/20 09:19:24;;;;;;;3.50;1.60;;;;;;;1.33;63.09;102193.03;4981446;28;20633;-67
2021/03/20 09:21:52;;;;;;;3.60;2.17;;;;;;;1.39;63.06;102190.41;4979758;28;20666;-67
2021/03/20 09:24:22;;;;;;;2.57;1.70;;;;;;;1.51;62.87;102196.50;4979742;28;20732;-67
2021/03/20 09:26:51;;;;;;;4.33;1.70;;;;;;;1.59;62.54;102198.25;4984199;28;20264;-67
2021/03/20 09:29:21;;;;;;;2.20;1.50;;;;;;;1.64;62.48;102192.97;4985107;28;20239;-65
2021/03/20 09:32:12;;;;;;;3.60;1.60;;;;;;;1.70;62.22;102200.84;4981526;28;20290;-70
2021/03/20 09:34:49;;;;;;;2.50;1.63;;;;;;;1.74;61.54;102200.84;4986522;28;20749;-67
2021/03/20 09:37:57;;;;;;;2.63;1.70;;;;;;;1.78;60.80;102206.97;4981147;28;20227;-66
2021/03/20 09:40:51;;;;;;;2.20;1.33;;;;;;;1.84;60.54;102206.06;4982872;28;21479;-68
2021/03/20 09:43:33;;;;;;;2.70;1.40;;;;;;;1.90;60.39;102204.31;4977923;28;20214;-67
2021/03/20 09:46:48;;;;;;;2.97;1.47;;;;;;;1.96;59.78;102204.28;4980148;28;20203;-67
2021/03/20 09:49:37;;;;;;;3.70;1.47;;;;;;;2.07;59.36;102205.13;4919102;29;20210;-67
2021/03/20 09:52:04;;;;;;;2.77;1.43;;;;;;;2.11;58.35;102205.09;4975304;28;20454;-67
2021/03/20 09:54:42;;;;;;;4.00;1.90;;;;;;;2.19;58.05;102198.06;4978036;28;20208;-67
2021/03/20 09:57:46;;;;;;;3.17;1.50;;;;;;;2.27;57.41;102199.78;4976579;28;20371;-67
2021/03/20 10:00:14;;;;;;;6.23;2.63;;;;;;;2.39;57.30;102189.19;4975458;28;20285;-67
2021/03/20 10:02:53;;;;;;;3.73;1.53;;;;;;;2.52;57.11;102187.38;4976648;28;20592;-67
2021/03/20 10:05:28;;;;;;;2.90;1.10;;;;;;;2.62;56.03;102190.84;4978814;28;20203;-67
2021/03/20 10:07:59;;;;;;;4.13;1.30;;;;;;;2.67;55.59;102191.69;4977901;28;20780;-69
2021/03/20 10:10:53;;;;;;;4.07;1.80;;;;;;;2.72;55.14;102188.13;4979959;28;20207;-66
2021/03/20 10:13:36;;;;;;;3.23;1.70;;;;;;;2.76;54.30;102184.59;4928874;28;20318;-67
2021/03/20 10:16:05;;;;;;;4.77;2.10;;;;;;;2.84;53.75;102181.03;4977356;28;20393;-66
2021/03/20 10:18:55;;;;;;;3.13;1.40;;;;;;;2.95;53.68;102189.72;4977536;28;20231;-67
2021/03/20 10:21:25;;;;;;;4.93;1.97;;;;;;;3.01;52.55;102182.66;4984437;28;20207;-67
2021/03/20 10:24:02;;;;;;;3.30;1.10;;;;;;;3.08;51.94;102184.34;4977975;28;20230;-69
2021/03/20 10:26:38;;;;;;;4.20;1.27;;;;;;;3.12;52.00;102179.94;4980833;28;20613;-69
2021/03/20 10:29:07;;;;;;;4.13;1.40;;;;;;;3.14;51.25;102175.53;4981418;28;20230;-66
2021/03/20 10:31:40;;;;;;;2.70;1.20;;;;;;;3.17;51.44;102175.50;4983375;28;20240;-65
2021/03/20 10:34:09;;;;;;;1.80;1.40;;;;;;;3.17;50.26;102175.50;4986785;28;20675;-68
2021/03/20 10:36:39;;;;;;;2.20;1.60;;;;;;;3.25;50.08;102176.31;4982087;28;20219;-68
2021/03/20 10:39:20;;;;;;;1.70;1.30;;;;;;;3.36;48.86;102165.69;4978784;28;20279;-69
2021/03/20 10:41:47;;;;;;;2.23;2.03;;;;;;;3.45;49.38;102168.22;4976690;28;20321;-67
2021/03/20 10:44:16;;;;;;;2.10;1.27;;;;;;;3.54;48.49;102168.16;4976442;28;20562;-67
2021/03/20 10:46:45;;;;;;;3.13;2.10;;;;;;;3.63;47.79;102161.91;4977277;28;20234;-66
2021/03/20 10:49:16;;;;;;;2.13;1.93;;;;;;;3.75;47.32;102167.06;4978344;28;20211;-67
2021/03/20 10:51:44;;;;;;;3.20;2.40;;;;;;;3.82;46.59;102166.94;4981371;28;20274;-68
2021/03/20 10:54:19;;;;;;;3.03;1.47;;;;;;;3.84;45.57;102153.75;4980744;28;20327;-68
2021/03/20 10:56:48;;;;;;;1.73;0.97;;;;;;;3.86;44.59;102148.47;4981214;28;20207;-66
2021/03/20 10:59:21;;;;;;;1.73;1.20;;;;;;;3.84;42.97;102141.44;4978649;28;20208;-68
2021/03/20 11:01:49;;;;;;;1.73;1.30;;;;;;;3.89;43.21;102138.78;4979742;28;20287;-67
2021/03/20 11:04:27;;;;;;;7.23;4.33;;;;;;;4.01;42.50;102137.75;4982048;28;20669;-68
2021/03/20 11:06:55;;;;;;;2.90;1.10;;;;;;;4.13;42.16;102132.28;4980964;28;20748;-68
2021/03/20 11:09:24;;;;;;;2.60;1.93;;;;;;;4.25;42.27;102137.44;4980287;28;20220;-68
2021/03/20 11:11:59;;;;;;;1.47;1.30;;;;;;;4.36;41.57;102118.81;4979950;28;20235;-67
2021/03/20 11:14:25;;;;;;;1.93;1.47;;;;;;;4.42;41.60;102121.38;4976854;28;20204;-67
2021/03/20 11:16:59;;;;;;;2.53;2.20;;;;;;;4.49;40.80;102115.09;4975551;28;20589;-69
2021/03/20 11:19:29;;;;;;;2.37;1.37;;;;;;;4.54;40.95;102110.63;4976505;28;20674;-65
2021/03/20 11:22:00;;;;;;;3.27;1.07;;;;;;;4.56;40.07;102116.75;4975975;28;20303;-68
2021/03/20 11:24:32;;;;;;;2.33;1.17;;;;;;;4.61;40.79;102114.91;4976996;28;20200;-67
2021/03/20 11:27:11;;;;;;;2.97;1.63;;;;;;;4.66;40.38;102117.50;4976499;28;20208;-65
2021/03/20 11:29:38;;;;;;;3.70;2.47;;;;;;;4.72;40.03;102112.97;4976460;28;20207;-67
2021/03/20 11:32:18;;;;;;;2.13;1.10;;;;;;;4.79;39.80;102103.19;4973269;28;20231;-68
2021/03/20 11:34:45;;;;;;;1.67;1.30;;;;;;;4.83;39.31;102110.19;4979102;28;20302;-68
2021/03/20 11:37:20;;;;;;;2.40;1.70;;;;;;;4.88;38.89;102101.25;4975206;28;20327;-66
2021/03/20 11:39:51;;;;;;;4.67;3.00;;;;;;;4.97;39.32;102091.47;4979630;28;20215;-67
2021/03/20 11:42:18;;;;;;;2.97;1.30;;;;;;;5.05;38.28;102089.53;4980329;28;20210;-65
2021/03/20 11:44:47;;;;;;;1.80;1.40;;;;;;;5.12;38.40;102084.13;4978663;28;20295;-69
2021/03/20 11:47:21;;;;;;;3.40;1.00;;;;;;;5.16;37.90;102069.13;4975536;28;20235;-67
2021/03/20 11:49:51;;;;;;;2.40;1.57;;;;;;;5.16;37.67;102064.69;4978290;28;20260;-67
2021/03/20 11:52:19;;;;;;;2.33;1.20;;;;;;;5.16;37.89;102058.56;4979025;28;20220;-68
2021/03/20 11:54:46;;;;;;;2.13;0.90;;;;;;;5.16;37.74;102053.25;4975101;28;20211;-67